ΕΜΥ, Εθνική Μετεωρολογική Υπηρεσία - Δελτία Καιρού, Προγνώσεις

ΑΕΡΟΝΑΥΤΙΛΙΑ

GREEK AIRPORTS CODES

TAF LGAV 191100Z 1912/2012 02015KT 9999 FEW020 TEMPO 1912/1919 01015G25KT BECMG 1919/1921 34015KT=

EUROPEAN AIRPORTS CODES

LFPO 191200Z 23010KT 190V270 9999 SCT045 BKN230 27/13 Q1015NOSIG=